EKOD/ODE METAR and TAF weather

Enter ICAO airport designator
Station Type Date Time Source
EKOD METAR 2019/02/15 15:50 UTC NOAA

EKOD 151550Z 20005KT CAVOK 09/M01 Q1028


Station Type Date Time Source
EKOD Decoded METAR 2019/02/15 15:50 UTC NOAA

Odense / Beldringe, Denmark (EKOD) 55-29N 010-20E 17M
Feb 15, 2019 - 10:50 AM EST / 2019.02.15 1550 UTC
Wind: from the SSW (200 degrees) at 6 MPH (5 KT):0
Visibility: greater than 7 mile(s):0
Temperature: 48 F (9 C)
Dew Point: 30 F (-1 C)
Relative Humidity: 49%
Pressure (altimeter): 30.36 in. Hg (1028 hPa)
ob: EKOD 151550Z 20005KT CAVOK 09/M01 Q1028
cycle: 16

Station Type Date Time Source
EKOD TAF 2015/04/20 17:00 UTC NOAA

TAF
AMD EKOD 201701Z 2017/2018 CNL


Example: see airport list